Strasburg, OH (44680)

6:07 PM EST on February 09, 2016 (GMT -0500)
GET | | Change Station
CLOSE
Current Station
Personal Weather Station
Location: Strasburg, OH
Elevation: 980 ft
Nearby Weather Stations

Elev 980 ft 40.63 °N, 81.53 °W | Updated 2 minutes ago

Overcast
Overcast
27.0 °F
Feels Like 22 °F
N
4.0
Wind Variable Wind from SSW
Gusts 5.0 mph

Today
High -- | Low -- °F
--% Chance of Precip.
Yesterday
High -- | Low -- °F
Precip. -- in
Pressure 29.73 in
Visibility 6.0 miles
Clouds Overcast 1300 ft
Windchill 22 °F
Dew Point 24 °F
Humidity 90%
Rainfall 0.00 in
Snow Depth Not available.
7:27 AM 5:53 PM
New Moon, 2% visible
METAR KPHD 092253Z AUTO 25009KT 6SM -SN OVC013 M03/M06 A2970 RMK AO2 SNB2157 SLP066 P0000 T10281056
Pressure 29.73 in
Visibility 6.0 miles
Clouds Overcast 1300 ft
Windchill 22 °F
Dew Point 24 °F
Humidity 90%
Rainfall 0.00 in
Snow Depth Not available.
7:27 AM 5:53 PM
New Moon, 2% visible
METAR KPHD 092253Z AUTO 25009KT 6SM -SN OVC013 M03/M06 A2970 RMK AO2 SNB2157 SLP066 P0000 T10281056
Winter Storm Nacio, the third winter storm in five days to affect the Northeast, is bringing pockets of locally heavy snow to parts of the Ohio Valley, Appalachians and mid-Atlantic states Tuesday. Winter storm warnings are posted for parts of southern Pennsylvania, southern Ohio and the higher peaks of the Appalachians. Winter weather advisories, generally for lighter snow accumulations, stretch from northeast Alabama and far north Georgia to southern Connecticut and Long Island.

10-Day Weather Forecast

Almanac

Astronomy

Feb. 09, 2016 Rise Set
Actual Time
Civil Twilight
Nautical Twilight
Astronomical Twilight
Moon
Length of Visible Light
Length of Day
Tomorrow will be .
, % of the Moon is Illuminated

Today's Extremes

State Highs State Lows

Community

WunderPhotos

Upload Photos

1,891,728 photos uploaded!

WunderBlog® & News

Nearby

Air Quality

  Air Quality AQ Index Pollutant
Not available.

Snow Depth

Station Depth Elevation

Earthquake Activity

City Distance Mag. Time & Date
Minimum magnitude displayed is 2.5.

Coastal Water Temperatures

Place Temperature

Stations

Nearby Weather Stations

Station Location Temp. Windchill Dew Point Humidity Wind Precip. Elev Updated Type
                   

Watches & Warnings

There are currently no watches in effect.